createdAt,value
2018-06-29T00:02:23.964Z,4.40
2018-06-29T00:04:52.320Z,2.70
2018-06-29T00:07:21.201Z,3.33
2018-06-29T00:09:49.499Z,2.93
2018-06-29T00:12:17.826Z,2.20
2018-06-29T00:14:46.263Z,2.33
2018-06-29T00:17:14.576Z,2.80
2018-06-29T00:19:42.916Z,2.40
2018-06-29T00:22:12.063Z,2.30
2018-06-29T00:24:40.303Z,1.90
2018-06-29T00:27:08.620Z,3.60
2018-06-29T00:29:36.927Z,1.77
2018-06-29T00:32:05.283Z,2.57
2018-06-29T00:34:33.624Z,2.87
2018-06-29T00:37:01.931Z,2.50
2018-06-29T00:39:31.072Z,2.20
2018-06-29T00:41:59.375Z,2.20
2018-06-29T00:44:27.696Z,2.50
2018-06-29T00:46:56.012Z,1.93
2018-06-29T00:49:24.347Z,2.30
2018-06-29T00:51:52.738Z,2.40
2018-06-29T00:54:21.926Z,2.00
2018-06-29T00:56:50.460Z,2.83
2018-06-29T00:59:18.816Z,2.43
2018-06-29T01:01:47.139Z,2.57
2018-06-29T01:04:15.448Z,2.20
2018-06-29T01:06:43.764Z,2.17
2018-06-29T01:09:13.031Z,2.33
2018-06-29T01:11:41.369Z,2.20
2018-06-29T01:14:09.833Z,2.60
2018-06-29T01:16:38.420Z,2.53
2018-06-29T01:19:07.343Z,2.83
2018-06-29T01:21:35.796Z,2.67
2018-06-29T01:24:04.276Z,3.00
2018-06-29T01:26:32.759Z,3.00
2018-06-29T01:29:01.104Z,3.10
2018-06-29T01:31:29.436Z,2.80
2018-06-29T01:33:57.772Z,2.70
2018-06-29T01:36:26.080Z,2.33
2018-06-29T01:38:54.412Z,2.73
2018-06-29T01:41:22.772Z,2.90
2018-06-29T01:43:51.060Z,3.27
2018-06-29T01:46:19.372Z,2.30
2018-06-29T01:48:47.672Z,2.90
2018-06-29T01:51:15.992Z,2.60
2018-06-29T01:53:44.324Z,3.40
2018-06-29T01:56:12.647Z,2.80
2018-06-29T01:58:41.011Z,2.63
2018-06-29T02:01:09.341Z,3.53
2018-06-29T02:03:37.652Z,3.43
2018-06-29T02:06:07.015Z,3.87
2018-06-29T02:08:35.332Z,3.70
2018-06-29T02:11:03.684Z,3.30
2018-06-29T02:13:32.635Z,3.23
2018-06-29T02:16:00.963Z,3.23
2018-06-29T02:18:29.702Z,3.20
2018-06-29T02:20:58.032Z,3.57
2018-06-29T02:23:26.383Z,3.20
2018-06-29T02:25:54.711Z,2.80
2018-06-29T02:28:23.036Z,2.80
2018-06-29T02:30:51.570Z,2.97
2018-06-29T02:33:19.829Z,3.53
2018-06-29T02:35:48.117Z,3.30
2018-06-29T02:38:16.430Z,3.77
2018-06-29T02:40:44.749Z,3.67
2018-06-29T02:43:13.141Z,4.20
2018-06-29T02:45:41.453Z,3.63
2018-06-29T02:48:09.829Z,3.30
2018-06-29T02:50:38.651Z,4.03
2018-06-29T02:53:08.012Z,4.23
2018-06-29T02:55:36.328Z,3.80
2018-06-29T02:58:04.681Z,4.40
2018-06-29T03:00:33.003Z,4.70
2018-06-29T03:03:02.301Z,4.13
2018-06-29T03:05:30.600Z,5.03
2018-06-29T03:07:58.952Z,4.77
2018-06-29T03:10:27.285Z,3.93
2018-06-29T03:12:55.604Z,4.77
2018-06-29T03:15:23.918Z,4.57
2018-06-29T03:17:52.204Z,4.33
2018-06-29T03:20:20.527Z,4.30
2018-06-29T03:22:48.852Z,3.67
2018-06-29T03:25:17.204Z,4.70
2018-06-29T03:27:45.492Z,3.20
2018-06-29T03:30:13.810Z,3.90
2018-06-29T03:32:42.130Z,3.80
2018-06-29T03:35:10.428Z,4.30
2018-06-29T03:37:38.728Z,4.73
2018-06-29T03:40:07.164Z,4.73
2018-06-29T03:42:35.469Z,4.30
2018-06-29T03:45:04.257Z,4.00
2018-06-29T03:47:32.543Z,4.77
2018-06-29T03:50:00.880Z,4.63
2018-06-29T03:52:29.188Z,4.70
2018-06-29T03:54:57.480Z,4.60
2018-06-29T03:57:26.077Z,4.07
2018-06-29T03:59:54.416Z,4.20
2018-06-29T04:02:22.767Z,4.07
2018-06-29T04:04:51.071Z,5.00
2018-06-29T04:07:19.445Z,4.70
2018-06-29T04:09:47.751Z,4.40
2018-06-29T04:12:16.065Z,4.30
2018-06-29T04:14:44.380Z,4.13
2018-06-29T04:17:12.708Z,4.97
2018-06-29T04:19:41.039Z,4.33
2018-06-29T04:22:09.852Z,4.47
2018-06-29T04:24:38.191Z,4.67
2018-06-29T04:27:06.508Z,4.90
2018-06-29T04:29:34.848Z,4.70
2018-06-29T04:32:03.153Z,4.63
2018-06-29T04:34:31.460Z,4.90
2018-06-29T04:36:59.808Z,3.90
2018-06-29T04:39:28.131Z,4.13
2018-06-29T04:41:56.470Z,4.40
2018-06-29T04:44:24.783Z,4.30
2018-06-29T04:46:53.111Z,4.43
2018-06-29T04:49:22.255Z,4.07
2018-06-29T04:51:50.569Z,4.53
2018-06-29T04:54:18.907Z,4.60
2018-06-29T04:56:47.588Z,4.87
2018-06-29T04:59:15.906Z,4.67
2018-06-29T05:01:44.250Z,4.07
2018-06-29T05:04:12.584Z,4.53
2018-06-29T05:06:41.409Z,4.00
2018-06-29T05:09:09.843Z,4.40
2018-06-29T05:11:38.692Z,5.37
2018-06-29T05:14:07.163Z,5.10
2018-06-29T05:16:36.156Z,4.20
2018-06-29T05:19:05.198Z,5.10
2018-06-29T05:21:33.636Z,4.77
2018-06-29T05:24:02.163Z,5.33
2018-06-29T05:26:30.543Z,4.37
2018-06-29T05:28:58.868Z,4.77
2018-06-29T05:31:27.597Z,4.67
2018-06-29T05:33:56.034Z,4.03
2018-06-29T05:36:24.441Z,4.50
2018-06-29T05:38:52.749Z,4.67
2018-06-29T05:41:21.146Z,4.70
2018-06-29T05:43:49.472Z,5.07
2018-06-29T05:46:17.839Z,4.90
2018-06-29T05:48:46.216Z,4.63
2018-06-29T05:51:14.513Z,5.23
2018-06-29T05:53:42.825Z,4.30
2018-06-29T05:56:11.141Z,4.70
2018-06-29T05:58:39.515Z,4.60
2018-06-29T06:01:09.808Z,4.50
2018-06-29T06:03:38.147Z,4.70
2018-06-29T06:06:06.936Z,4.77
2018-06-29T06:08:35.308Z,4.90
2018-06-29T06:11:03.648Z,4.70
2018-06-29T06:13:32.265Z,5.50
2018-06-29T06:16:01.200Z,4.90
2018-06-29T06:18:29.844Z,5.07
2018-06-29T06:20:58.188Z,4.83
2018-06-29T06:23:26.500Z,4.97
2018-06-29T06:25:54.809Z,4.80
2018-06-29T06:28:23.167Z,5.13
2018-06-29T06:30:51.544Z,5.00
2018-06-29T06:33:19.887Z,5.43
2018-06-29T06:35:48.224Z,5.40
2018-06-29T06:38:16.527Z,4.27
2018-06-29T06:40:45.099Z,4.80
2018-06-29T06:43:13.412Z,4.87
2018-06-29T06:45:41.748Z,5.70
2018-06-29T06:48:10.088Z,4.40
2018-06-29T06:50:38.755Z,5.10
2018-06-29T06:53:07.112Z,5.57
2018-06-29T06:55:35.419Z,4.20
2018-06-29T06:58:03.760Z,5.57
2018-06-29T07:00:32.060Z,5.30
2018-06-29T07:03:00.360Z,5.17
2018-06-29T07:05:28.700Z,5.00
2018-06-29T07:07:57.004Z,4.20
2018-06-29T07:10:25.304Z,4.73
2018-06-29T07:12:53.615Z,4.37
2018-06-29T07:15:22.224Z,3.90
2018-06-29T07:17:50.583Z,4.00
2018-06-29T07:20:18.876Z,4.20
2018-06-29T07:22:47.188Z,3.43
2018-06-29T07:25:15.512Z,4.07
2018-06-29T07:27:45.975Z,3.47
2018-06-29T07:30:14.340Z,3.53
2018-06-29T07:32:42.647Z,4.23
2018-06-29T07:35:10.978Z,2.83
2018-06-29T07:37:39.273Z,3.60
2018-06-29T07:40:07.628Z,3.90
2018-06-29T07:42:35.957Z,3.10
2018-06-29T07:45:05.004Z,2.57
2018-06-29T07:47:33.344Z,2.67
2018-06-29T07:50:01.681Z,4.17
2018-06-29T07:52:29.988Z,2.83
2018-06-29T07:54:58.297Z,2.70
2018-06-29T07:57:26.613Z,3.83
2018-06-29T07:59:54.928Z,4.20
2018-06-29T08:02:23.244Z,4.00
2018-06-29T08:04:51.536Z,3.63
2018-06-29T08:07:19.844Z,2.10
2018-06-29T08:09:48.139Z,2.33
2018-06-29T08:12:16.475Z,2.57
2018-06-29T08:14:45.072Z,2.03
2018-06-29T08:17:13.445Z,2.63
2018-06-29T08:19:41.732Z,2.13
2018-06-29T08:22:10.560Z,1.97
2018-06-29T08:24:49.964Z,1.90
2018-06-29T08:27:18.287Z,1.63
2018-06-29T08:29:46.600Z,1.60
2018-06-29T08:32:14.912Z,1.80
2018-06-29T08:34:43.234Z,2.40
2018-06-29T08:37:11.981Z,2.10
2018-06-29T08:39:40.329Z,1.70
2018-06-29T08:42:09.460Z,1.87
2018-06-29T08:44:37.807Z,1.90
2018-06-29T08:47:06.390Z,1.30
2018-06-29T08:49:34.795Z,1.70
2018-06-29T08:52:03.156Z,2.00
2018-06-29T08:54:31.476Z,1.40
2018-06-29T08:56:59.916Z,1.67
2018-06-29T08:59:28.228Z,1.10
2018-06-29T09:01:57.175Z,1.30
2018-06-29T09:04:25.766Z,1.40
2018-06-29T09:06:54.066Z,1.60
2018-06-29T09:09:22.369Z,1.50
2018-06-29T09:11:50.701Z,1.97
2018-06-29T09:14:19.012Z,1.43
2018-06-29T09:16:47.351Z,1.33
2018-06-29T09:19:15.724Z,1.37
2018-06-29T09:21:44.036Z,1.10
2018-06-29T09:24:12.320Z,1.17
2018-06-29T09:26:40.644Z,1.63
2018-06-29T09:29:09.015Z,1.50
2018-06-29T09:31:37.502Z,1.33
2018-06-29T09:34:05.835Z,1.33
2018-06-29T09:36:34.367Z,1.20
2018-06-29T09:39:02.729Z,1.57
2018-06-29T09:41:31.093Z,1.53
2018-06-29T09:43:59.656Z,1.40
2018-06-29T09:46:28.272Z,1.60
2018-06-29T09:48:56.572Z,1.10
2018-06-29T09:51:25.092Z,1.50
2018-06-29T09:53:53.408Z,1.83
2018-06-29T09:56:21.740Z,1.60
2018-06-29T09:58:50.804Z,1.33
2018-06-29T10:01:19.188Z,1.30
2018-06-29T10:03:47.437Z,1.43
2018-06-29T10:06:15.829Z,2.00
2018-06-29T10:08:44.132Z,1.57
2018-06-29T10:11:12.456Z,1.20
2018-06-29T10:13:40.793Z,1.00
2018-06-29T10:16:09.091Z,1.07
2018-06-29T10:18:37.429Z,1.50
2018-06-29T10:21:05.764Z,1.30
2018-06-29T10:23:34.116Z,1.10
2018-06-29T10:26:02.476Z,1.13
2018-06-29T10:28:30.911Z,1.23
2018-06-29T10:30:59.377Z,2.40
2018-06-29T10:33:27.712Z,2.27
2018-06-29T10:35:56.099Z,0.93
2018-06-29T10:38:24.391Z,1.43
2018-06-29T10:40:53.339Z,1.00
2018-06-29T10:43:21.656Z,1.20
2018-06-29T10:45:49.969Z,1.07
2018-06-29T10:48:18.323Z,0.90
2018-06-29T10:50:46.698Z,1.00
2018-06-29T10:53:14.992Z,1.10
2018-06-29T10:55:43.901Z,1.10
2018-06-29T10:58:12.208Z,1.00
2018-06-29T11:00:40.528Z,1.17
2018-06-29T11:03:08.947Z,1.23
2018-06-29T11:05:37.323Z,1.07
2018-06-29T11:08:05.743Z,0.83
2018-06-29T11:10:34.089Z,1.30
2018-06-29T11:13:02.432Z,1.37
2018-06-29T11:15:30.820Z,1.00
2018-06-29T11:17:59.749Z,0.77
2018-06-29T11:20:28.096Z,1.10
2018-06-29T11:22:56.492Z,0.97
2018-06-29T11:25:25.054Z,0.93
2018-06-29T11:27:53.348Z,0.90
2018-06-29T11:30:21.722Z,1.27
2018-06-29T11:32:50.112Z,2.80
2018-06-29T11:35:18.420Z,1.03
2018-06-29T11:37:46.727Z,1.07
2018-06-29T11:40:15.074Z,1.13
2018-06-29T11:42:43.977Z,0.90
2018-06-29T11:45:12.333Z,1.20
2018-06-29T11:47:40.629Z,0.80
2018-06-29T11:50:08.967Z,1.90
2018-06-29T11:52:37.263Z,1.47
2018-06-29T11:55:05.900Z,0.90
2018-06-29T11:57:34.212Z,1.00
2018-06-29T12:00:02.564Z,1.03
2018-06-29T12:02:31.016Z,1.50
2018-06-29T12:04:59.337Z,0.90
2018-06-29T12:07:27.701Z,0.90
2018-06-29T12:09:56.024Z,1.00
2018-06-29T12:12:24.416Z,0.70
2018-06-29T12:14:52.882Z,1.00
2018-06-29T12:17:21.149Z,1.10
2018-06-29T12:19:49.461Z,1.10
2018-06-29T12:22:17.802Z,1.00
2018-06-29T12:24:46.112Z,1.23
2018-06-29T12:27:14.420Z,0.90
2018-06-29T12:29:42.743Z,0.80
2018-06-29T12:32:11.165Z,0.90
2018-06-29T12:34:39.468Z,0.90
2018-06-29T12:37:07.814Z,1.20
2018-06-29T12:39:36.140Z,0.97
2018-06-29T12:42:04.521Z,1.27
2018-06-29T12:44:33.327Z,0.93
2018-06-29T12:47:01.624Z,0.87
2018-06-29T12:49:30.096Z,1.60
2018-06-29T12:51:58.398Z,1.83
2018-06-29T12:54:26.737Z,0.83
2018-06-29T12:56:55.036Z,1.00
2018-06-29T12:59:23.347Z,0.90
2018-06-29T13:01:51.639Z,0.90
2018-06-29T13:04:19.949Z,0.80
2018-06-29T13:06:48.279Z,0.80
2018-06-29T13:09:16.578Z,1.00
2018-06-29T13:11:44.868Z,1.40
2018-06-29T13:14:13.245Z,1.20
2018-06-29T13:16:41.487Z,1.07
2018-06-29T13:19:09.823Z,1.27
2018-06-29T13:21:38.132Z,1.07
2018-06-29T13:24:06.487Z,1.07
2018-06-29T13:26:34.904Z,1.67
2018-06-29T13:29:03.535Z,0.97
2018-06-29T13:31:31.884Z,0.93
2018-06-29T13:34:00.207Z,0.97
2018-06-29T13:36:28.568Z,1.00
2018-06-29T13:38:56.941Z,1.20
2018-06-29T13:41:25.254Z,0.80
2018-06-29T13:43:54.195Z,1.00
2018-06-29T13:46:22.451Z,1.07
2018-06-29T13:48:51.305Z,1.07
2018-06-29T13:51:19.620Z,1.37
2018-06-29T13:53:47.935Z,1.53
2018-06-29T13:56:16.321Z,1.20
2018-06-29T13:58:44.624Z,1.00
2018-06-29T14:01:12.960Z,1.33
2018-06-29T14:03:41.288Z,0.90
2018-06-29T14:06:10.360Z,0.93
2018-06-29T14:08:38.732Z,0.97
2018-06-29T14:11:07.045Z,1.10
2018-06-29T14:13:35.444Z,1.23
2018-06-29T14:16:04.692Z,1.00
2018-06-29T14:18:33.028Z,1.10
2018-06-29T14:21:01.328Z,1.00
2018-06-29T14:23:29.640Z,1.23
2018-06-29T14:25:57.969Z,1.00
2018-06-29T14:28:26.288Z,1.00
2018-06-29T14:30:54.620Z,0.93
2018-06-29T14:33:24.003Z,0.90
2018-06-29T14:35:53.153Z,0.90
2018-06-29T14:38:21.499Z,1.20
2018-06-29T14:40:49.837Z,0.80
2018-06-29T14:43:18.180Z,0.70
2018-06-29T14:45:46.513Z,1.27
2018-06-29T14:48:14.811Z,0.90
2018-06-29T14:50:43.208Z,0.90
2018-06-29T14:53:11.642Z,0.97
2018-06-29T14:55:39.961Z,0.83
2018-06-29T14:58:08.250Z,1.00
2018-06-29T15:00:36.580Z,0.70
2018-06-29T15:03:05.094Z,0.97
2018-06-29T15:05:34.779Z,1.53
2018-06-29T15:08:03.092Z,1.03
2018-06-29T15:10:31.396Z,0.70
2018-06-29T15:13:00.384Z,1.13
2018-06-29T15:15:28.748Z,0.80
2018-06-29T15:17:57.072Z,0.70
2018-06-29T15:20:25.438Z,1.00
2018-06-29T15:22:53.767Z,0.80
2018-06-29T15:25:22.121Z,1.10
2018-06-29T15:27:50.387Z,1.00
2018-06-29T15:30:19.437Z,1.00
2018-06-29T15:32:47.768Z,1.00
2018-06-29T15:35:16.101Z,0.90
2018-06-29T15:37:44.418Z,0.73
2018-06-29T15:40:12.723Z,0.70
2018-06-29T15:42:41.034Z,0.80
2018-06-29T15:45:09.388Z,0.93
2018-06-29T15:47:37.720Z,1.10
2018-06-29T15:50:06.207Z,0.80
2018-06-29T15:52:35.052Z,0.67
2018-06-29T15:55:03.809Z,0.83
2018-06-29T15:57:32.132Z,1.23
2018-06-29T16:00:00.477Z,0.77
2018-06-29T16:02:28.912Z,1.00
2018-06-29T16:04:57.240Z,8.53
2018-06-29T16:07:25.623Z,1.13
2018-06-29T16:09:53.964Z,1.00
2018-06-29T16:12:22.248Z,1.00
2018-06-29T16:14:50.559Z,1.33
2018-06-29T16:17:18.875Z,1.50
2018-06-29T16:19:47.208Z,1.20
2018-06-29T16:22:15.544Z,0.63
2018-06-29T16:24:43.854Z,0.70
2018-06-29T16:27:12.192Z,0.90
2018-06-29T16:29:40.513Z,1.10
2018-06-29T16:32:09.427Z,0.90
2018-06-29T16:34:37.741Z,1.60
2018-06-29T16:37:10.741Z,1.10
2018-06-29T16:39:41.447Z,0.97
2018-06-29T16:42:09.907Z,1.20
2018-06-29T16:44:41.114Z,0.90
2018-06-29T16:47:12.717Z,0.93
2018-06-29T16:49:41.303Z,0.87
2018-06-29T16:52:09.652Z,0.97
2018-06-29T16:54:37.996Z,0.90
2018-06-29T16:57:06.335Z,1.00
2018-06-29T16:59:34.637Z,0.90
2018-06-29T17:02:02.955Z,1.00
2018-06-29T17:04:31.256Z,1.30
2018-06-29T17:06:59.568Z,1.10
2018-06-29T17:09:27.867Z,1.47
2018-06-29T17:11:56.159Z,0.80
2018-06-29T17:14:24.848Z,0.70
2018-06-29T17:16:53.218Z,0.70
2018-06-29T17:19:21.595Z,0.90
2018-06-29T17:21:49.916Z,1.00
2018-06-29T17:24:18.220Z,0.80
2018-06-29T17:26:46.564Z,0.90
2018-06-29T17:29:14.935Z,1.00
2018-06-29T17:31:43.192Z,0.83
2018-06-29T17:34:11.676Z,0.93
2018-06-29T17:36:40.002Z,0.87
2018-06-29T17:39:09.678Z,1.13
2018-06-29T17:41:38.177Z,1.40
2018-06-29T17:44:06.489Z,1.00
2018-06-29T17:46:34.918Z,1.10
2018-06-29T17:49:03.296Z,0.87
2018-06-29T17:51:31.645Z,1.00
2018-06-29T17:54:00.002Z,1.43
2018-06-29T17:56:28.260Z,1.00
2018-06-29T17:58:56.585Z,0.90
2018-06-29T18:01:25.019Z,1.20
2018-06-29T18:03:53.321Z,0.73
2018-06-29T18:06:21.644Z,1.00
2018-06-29T18:08:49.948Z,1.17
2018-06-29T18:11:18.264Z,1.10
2018-06-29T18:13:46.551Z,1.40
2018-06-29T18:16:14.955Z,1.10
2018-06-29T18:18:43.164Z,1.20
2018-06-29T18:21:11.472Z,0.90
2018-06-29T18:23:39.798Z,1.20
2018-06-29T18:26:08.091Z,1.17
2018-06-29T18:28:36.452Z,1.10
2018-06-29T18:31:04.803Z,1.30
2018-06-29T18:33:33.238Z,1.20
2018-06-29T18:36:01.628Z,1.00
2018-06-29T18:38:29.936Z,0.97
2018-06-29T18:40:58.267Z,1.17
2018-06-29T18:43:26.586Z,1.10
2018-06-29T18:45:54.946Z,1.40
2018-06-29T18:48:23.265Z,1.00
2018-06-29T18:50:51.607Z,1.00
2018-06-29T18:53:20.049Z,1.07
2018-06-29T18:55:48.384Z,1.30
2018-06-29T18:58:17.831Z,1.67
2018-06-29T19:00:46.133Z,1.40
2018-06-29T19:03:14.520Z,1.47
2018-06-29T19:05:42.865Z,1.80
2018-06-29T19:08:11.181Z,1.90
2018-06-29T19:10:39.497Z,1.60
2018-06-29T19:13:07.948Z,2.33
2018-06-29T19:15:36.247Z,1.97
2018-06-29T19:18:04.682Z,1.60
2018-06-29T19:20:34.000Z,1.67
2018-06-29T19:23:02.312Z,1.17
2018-06-29T19:25:30.652Z,1.93
2018-06-29T19:27:58.952Z,2.30
2018-06-29T19:30:27.268Z,2.43
2018-06-29T19:32:55.580Z,2.30
2018-06-29T19:35:23.912Z,2.30
2018-06-29T19:37:52.357Z,2.30
2018-06-29T19:40:20.668Z,1.87
2018-06-29T19:42:49.116Z,1.40
2018-06-29T19:45:17.424Z,1.70
2018-06-29T19:47:45.819Z,1.80
2018-06-29T19:50:14.212Z,1.73
2018-06-29T19:52:42.592Z,1.90
2018-06-29T19:55:10.932Z,1.80
2018-06-29T19:57:39.952Z,1.90
2018-06-29T20:00:08.315Z,1.60
2018-06-29T20:02:36.637Z,1.50
2018-06-29T20:05:05.367Z,1.60
2018-06-29T20:07:33.645Z,1.70
2018-06-29T20:10:01.995Z,1.70
2018-06-29T20:12:30.335Z,2.67
2018-06-29T20:14:58.967Z,1.90
2018-06-29T20:17:27.360Z,2.23
2018-06-29T20:19:55.900Z,1.60
2018-06-29T20:22:24.189Z,2.00
2018-06-29T20:24:52.516Z,5.00
2018-06-29T20:27:20.904Z,1.80
2018-06-29T20:29:49.200Z,3.40
2018-06-29T20:32:17.572Z,2.43
2018-06-29T20:34:45.877Z,2.60
2018-06-29T20:37:14.215Z,2.50
2018-06-29T20:39:42.537Z,2.30
2018-06-29T20:42:10.865Z,2.13
2018-06-29T20:44:39.926Z,2.20
2018-06-29T20:47:08.239Z,1.87
2018-06-29T20:49:36.562Z,2.03
2018-06-29T20:52:04.903Z,2.03
2018-06-29T20:54:33.475Z,2.20
2018-06-29T20:57:01.785Z,2.17
2018-06-29T20:59:30.119Z,2.50
2018-06-29T21:01:58.424Z,2.23
2018-06-29T21:04:26.768Z,2.40
2018-06-29T21:06:55.116Z,2.67
2018-06-29T21:09:23.440Z,2.10
2018-06-29T21:11:51.859Z,1.93
2018-06-29T21:14:20.174Z,2.13
2018-06-29T21:16:48.491Z,2.13
2018-06-29T21:19:16.849Z,3.30
2018-06-29T21:21:45.260Z,2.10
2018-06-29T21:24:13.712Z,3.37
2018-06-29T21:26:42.041Z,3.20
2018-06-29T21:29:10.387Z,2.97
2018-06-29T21:31:38.684Z,3.30
2018-06-29T21:34:07.064Z,3.10
2018-06-29T21:36:35.392Z,2.90
2018-06-29T21:39:04.637Z,3.40
2018-06-29T21:41:32.936Z,3.37
2018-06-29T21:44:01.266Z,3.70
2018-06-29T21:46:29.594Z,3.20
2018-06-29T21:48:57.940Z,4.00
2018-06-29T21:51:26.319Z,3.40
2018-06-29T21:53:54.722Z,3.67
2018-06-29T21:56:23.016Z,3.37
2018-06-29T21:58:51.315Z,3.90
2018-06-29T22:01:19.614Z,5.20
2018-06-29T22:03:47.960Z,3.67
2018-06-29T22:06:16.268Z,4.27
2018-06-29T22:08:44.556Z,3.70
2018-06-29T22:11:12.875Z,4.40
2018-06-29T22:13:41.265Z,4.37
2018-06-29T22:16:09.583Z,4.47
2018-06-29T22:18:37.892Z,4.80
2018-06-29T22:21:06.288Z,4.00
2018-06-29T22:23:34.588Z,3.83
2018-06-29T22:26:02.947Z,4.70
2018-06-29T22:28:31.268Z,4.70
2018-06-29T22:30:59.575Z,4.13
2018-06-29T22:33:28.163Z,4.80
2018-06-29T22:35:56.505Z,4.97
2018-06-29T22:38:24.831Z,4.30
2018-06-29T22:40:53.124Z,4.63
2018-06-29T22:43:21.436Z,4.60
2018-06-29T22:45:49.755Z,5.10
2018-06-29T22:48:18.121Z,5.63
2018-06-29T22:50:46.449Z,4.50
2018-06-29T22:53:15.488Z,4.57
2018-06-29T22:55:43.796Z,6.43
2018-06-29T22:58:12.735Z,5.10
2018-06-29T23:00:41.062Z,5.50
2018-06-29T23:03:11.048Z,4.80
2018-06-29T23:05:39.372Z,5.70
2018-06-29T23:08:10.069Z,4.33
2018-06-29T23:10:38.692Z,4.43
2018-06-29T23:13:07.275Z,5.43
2018-06-29T23:15:35.592Z,5.03
2018-06-29T23:18:04.020Z,4.90
2018-06-29T23:20:32.376Z,4.57
2018-06-29T23:23:00.695Z,5.10
2018-06-29T23:25:29.101Z,4.83
2018-06-29T23:27:57.388Z,5.03
2018-06-29T23:30:25.689Z,5.50
2018-06-29T23:32:54.011Z,5.20
2018-06-29T23:35:22.339Z,5.80
2018-06-29T23:37:50.673Z,5.43
2018-06-29T23:40:18.981Z,4.87
2018-06-29T23:42:47.312Z,5.40
2018-06-29T23:45:15.617Z,6.27
2018-06-29T23:47:43.936Z,5.37
2018-06-29T23:50:12.260Z,6.07
2018-06-29T23:52:40.577Z,5.80
2018-06-29T23:55:08.920Z,5.70
2018-06-29T23:57:37.254Z,5.50
